עמוד ראשי
METAR-TAF:

METAR-TAF

שדות תעופה :

Ørsta-Volda, נורבגיה

קו רוחב: 62-11N, קו אורך: 006-04E, גובה: 7מטר

תצפית מזג אוויר נוכחית

הדו"ח נערך לפני 37דקות, בשעה 21:50 UTC
רוח 1קשר עם כיוונים משתנים
טמפרטורת 10 צלסיוס
לחות 93%
לחץ 1015 hPa
ראות 10 קילומטר או יותר
גשם קל

METAR: ENOV 182150Z AUTO VRB01KT 9999 -RA SCT006/// OVC009/// 10/09 Q1015 RMK WIND RWY24 VRB05KT WIND 2090FT 28015KT

זמן: 00:27 (22:27 UTC)

תחזית

הדו"ח נערך לפני 12 שעות ו 39דקות, בשעה 09:48 UTC
תחזית בתוקף מ 18 ב 09 UTC עד 18 ב 15 UTC
רוח 8קשר מכיוון מערב/דרום-מערב
ראות 10 קילומטר או יותר
מעט עננים בגובה 4500רגל
עננים פזורים בגובה 8000רגל
זמנית מ -
18 ב 10 UTC עד 18 ב 14 UTC
רוח 15קשר מכיוון מערב/דרום-מערב עם משבים עד 25קשר
הסתברות 30% :
זמנית מ -
18 ב 09 UTC עד 18 ב 15 UTC
עננים פזורים בגובה 4000רגל , קומולוס מיגדלי.
עננים בינוניים בגובה 5000רגל
ממטרי גשם,

TAF: ENOV 180948Z 1809/1815 25008KT 9999 FEW045 SCT080 TEMPO 1810/1814 25015G25KT PROB30 TEMPO 1809/1815 SHRA SCT040TCU BKN050

תצפיות ותחזיות מזג אוויר לגבי יותר מ- 4,000 שדות תעופה ברחבי העולם. דוחות METAR ו- TAF.

התחנות הזמינות מסומנות בנקודות צהובות ואדומות על גבי המפה.

העבר את העכבר לנקודה הצבעונית על מנת לראות את שם התחנה.

לאחר מכן, לחץ כדי לראות את תוכן ואת תחזיות מזג האוויר.

כדי לשנות את המפה: לחץ על הכפתורים הירוקים עם הפלוס השחור כדי להתקרב; על הכפתור הירוק עם המקף כדי להתרחק; או בחיצים הירוקים למפות סמוכות.


METAR-TAF: